Crystal River, FL (34429)

3:54 PM EDT on August 23, 2014 (GMT -0400)
The Homestead | Change Station
CLOSE
Current Station
Personal Weather Station
Location: Lecanto, FL
Elevation: 108 ft
Nearby Weather Stations

Elev 108 ft 28.83 °N, 82.52 °W | Updated 7 seconds ago

Scattered Clouds
Scattered Clouds
91.4 °F
Feels Like 87 °F
N
0.9
Wind Variable Wind from NNW
Gusts 3.8 mph

Today
High -- | Low -- °F
--% Chance of Precip.
Yesterday
High -- | Low -- °F
Precip. -- in
7:03 AM 8:01 PM
Waning Crescent, 3% visible
Pressure 29.92 in
Visibility 10.0 miles
Clouds Scattered Clouds 9000 ft
Scattered Clouds 11000 ft
Heat Index 87 °F
Dew Point 27 °F
Humidity 10%
Rainfall 0.05 in
Snow Depth Not available.
UV 0.0 out of 12
Pollen 4.60 out of 12
Air Quality Not available.
Flu Activity Not available.
METAR KCGC 231935Z AUTO 29006KT 10SM SCT090 SCT110 32/26 A2992 RMK AO2 LTG DSNT N PWINO

More Conditions Fewer Conditions

Pressure 29.92 in
Visibility 10.0 miles
Clouds Scattered Clouds 9000 ft
Scattered Clouds 11000 ft
Heat Index 87 °F
Dew Point 27 °F
Humidity 10%
Rainfall 0.05 in
Snow Depth Not available.
UV 0.0 out of 12
Pollen 4.60 out of 12
Air Quality Not available.
Flu Activity Not available.
METAR KCGC 231935Z AUTO 29006KT 10SM SCT090 SCT110 32/26 A2992 RMK AO2 LTG DSNT N PWINO

More Conditions Fewer Conditions

10-Day Weather Forecast

Almanac

Astronomy

Aug. 23, 2014 Rise Set
Actual Time 7:03 AM EDT 8:01 PM EDT
Civil Twilight 6:39 AM EDT 8:26 PM EDT
Nautical Twilight 6:10 AM EDT 8:55 PM EDT
Astronomical Twilight 5:40 AM EDT 9:24 PM EDT
Moon 5:21 AM EDT 6:44 PM EDT
Length of Visible Light 13h 47m
Length of Day
12h 58m
Tomorrow will be 1m 35s shorter.
Waning Crescent, 3% of the Moon is Illuminated
Today
Waning Crescent
Aug 25
New
Sep 2
First Quarter
Sep 8
Full
Sep 15
Last Quarter

Today's Extremes

State Highs State Lows

Community

WunderPhotos

Upload Photos

1,746,583 photos uploaded!

WunderBlogs® & News

Nearby

Snow Depth

Station Depth Elevation
No new snow has been reported.

Earthquake Activity

City Distance Mag. Time & Date
No recent earthquake activity has been reported nearby.
Minimum magnitude displayed is 2.5.

Coastal Water Temperatures

Place Temperature
No Stations Reporting

Nearby Weather Stations